Time;durP1;ratioP1;P1;durP2;ratioP2;P2;SDS_P1;SDS_P2;PMS_P1;PMS_P2;Temp;Humidity;BMP_temperature;BMP_pressure;BME280_temperature;BME280_humidity;BME280_pressure;Samples;Min_cycle;Max_cycle;Signal;HPM_P1;HPM_P2
2022/01/28 00:01:22;;;;;;;8.70;1.50;;;6.50;99.90;;;;;;4919584;29;20055;-90
2022/01/28 00:03:49;;;;;;;15.10;3.15;;;6.50;99.90;;;;;;4935244;29;20052;-90
2022/01/28 00:06:17;;;;;;;13.43;1.80;;;6.50;99.90;;;;;;4935277;29;20075;-90
2022/01/28 00:08:44;;;;;;;11.70;1.45;;;6.40;99.90;;;;;;4954219;28;20044;-91
2022/01/28 00:11:11;;;;;;;20.10;2.55;;;6.40;99.90;;;;;;4938094;29;20046;-90
2022/01/28 00:13:41;;;;;;;15.02;2.63;;;6.40;99.90;;;;;;4938348;29;20450;-90
2022/01/28 00:16:45;;;;;;;15.05;2.35;;;6.40;99.90;;;;;;4954006;28;20070;-90
2022/01/28 00:19:34;;;;;;;9.45;1.73;;;6.40;99.90;;;;;;4953483;28;20110;-90
2022/01/28 00:36:42;;;;;;;12.13;1.38;;;6.40;99.90;;;;;;4953740;29;20051;-90
2022/01/28 00:38:34;;;;;;;9.70;1.33;;;6.40;99.90;;;;;;4949803;28;20059;-91
2022/01/28 00:41:02;;;;;;;13.25;1.50;;;6.40;99.90;;;;;;4937710;29;20413;-90
2022/01/28 00:43:29;;;;;;;10.48;1.70;;;6.40;99.90;;;;;;4938320;29;20504;-90
2022/01/28 00:45:56;;;;;;;9.23;2.97;;;6.40;99.90;;;;;;4953085;28;20047;-90
2022/01/28 00:48:23;;;;;;;8.52;1.55;;;6.40;99.90;;;;;;4937291;29;20051;-92
2022/01/28 00:50:50;;;;;;;16.98;2.17;;;6.40;99.90;;;;;;4953580;28;20056;-91
2022/01/28 00:53:17;;;;;;;16.67;2.15;;;6.40;99.90;;;;;;4954287;28;20070;-91
2022/01/28 00:55:44;;;;;;;19.13;2.03;;;6.40;99.90;;;;;;4937483;29;20506;-90
2022/01/28 00:58:11;;;;;;;16.48;1.95;;;6.40;99.90;;;;;;4937232;29;20561;-90
2022/01/28 01:00:38;;;;;;;7.65;1.77;;;6.30;99.90;;;;;;4953593;28;20130;-91
2022/01/28 01:03:05;;;;;;;15.13;3.45;;;6.40;99.90;;;;;;4937739;29;20043;-91
2022/01/28 01:05:34;;;;;;;20.58;2.97;;;6.30;99.90;;;;;;4949195;29;20098;-91
2022/01/28 01:08:03;;;;;;;17.85;2.03;;;6.30;99.90;;;;;;4956341;28;20043;-90
2022/01/28 01:10:30;;;;;;;11.40;1.67;;;6.40;99.90;;;;;;4956222;28;20045;-90
2022/01/28 01:12:57;;;;;;;8.00;1.77;;;6.40;99.90;;;;;;4956121;28;20074;-90
2022/01/28 01:15:29;;;;;;;16.20;2.75;;;6.40;99.90;;;;;;4961161;28;20465;-92
2022/01/28 01:18:03;;;;;;;9.15;1.92;;;6.30;99.90;;;;;;4955406;28;20051;-90
2022/01/28 01:23:09;;;;;;;17.58;2.53;;;6.40;99.90;;;;;;4956389;28;20141;-91
2022/01/28 01:25:48;;;;;;;14.18;2.70;;;6.40;99.90;;;;;;4955995;29;20090;-91
2022/01/28 01:28:20;;;;;;;16.98;1.85;;;6.40;99.90;;;;;;4956224;28;20051;-91
2022/01/28 01:30:48;;;;;;;14.23;1.38;;;6.30;99.90;;;;;;4955620;29;20066;-90
2022/01/28 01:33:18;;;;;;;12.52;1.98;;;6.30;99.90;;;;;;4940293;29;20054;-91
2022/01/28 01:35:45;;;;;;;17.38;2.63;;;6.30;99.90;;;;;;4955981;28;20055;-90
2022/01/28 01:38:12;;;;;;;19.10;2.75;;;6.30;99.90;;;;;;4955398;29;20521;-91
2022/01/28 01:40:51;;;;;;;18.98;2.58;;;6.30;99.90;;;;;;4955578;28;20050;-91
2022/01/28 01:46:05;;;;;;;14.15;2.08;;;6.30;99.90;;;;;;4955188;29;20521;-90
2022/01/28 01:54:03;;;;;;;20.10;2.70;;;6.30;99.90;;;;;;4958838;28;20043;-90
2022/01/28 01:56:30;;;;;;;12.80;2.80;;;6.30;99.90;;;;;;4955363;28;20464;-90
2022/01/28 01:58:58;;;;;;;10.50;1.55;;;6.30;99.90;;;;;;4955276;28;20047;-91
2022/01/28 02:01:25;;;;;;;10.88;1.38;;;6.20;99.90;;;;;;4956062;28;20138;-91
2022/01/28 02:03:53;;;;;;;12.43;1.25;;;6.30;99.90;;;;;;4944510;29;20560;-90
2022/01/28 02:06:22;;;;;;;12.65;2.50;;;6.30;99.90;;;;;;4944711;29;20460;-91
2022/01/28 02:08:50;;;;;;;14.10;1.40;;;6.30;99.90;;;;;;4960106;28;20043;-91
2022/01/28 02:11:17;;;;;;;17.33;2.00;;;6.30;99.90;;;;;;4963708;28;20050;-90
2022/01/28 02:13:50;;;;;;;23.50;2.92;;;6.20;99.90;;;;;;4954695;28;20043;-90
2022/01/28 02:16:18;;;;;;;14.05;1.77;;;6.20;99.90;;;;;;4954919;28;20047;-90
2022/01/28 02:18:45;;;;;;;9.63;1.40;;;6.20;99.90;;;;;;4958598;29;20051;-91
2022/01/28 02:21:15;;;;;;;10.15;2.47;;;6.20;99.90;;;;;;4955453;28;20047;-91
2022/01/28 02:23:45;;;;;;;7.38;1.58;;;6.20;99.90;;;;;;4954692;28;20039;-90
2022/01/28 02:26:15;;;;;;;18.75;2.67;;;6.20;99.90;;;;;;4954783;29;20094;-91
2022/01/28 02:28:46;;;;;;;7.80;1.10;;;6.20;99.90;;;;;;4954629;28;20039;-90
2022/01/28 02:31:19;;;;;;;15.55;2.67;;;6.20;99.90;;;;;;4954356;28;20477;-91
2022/01/28 02:33:47;;;;;;;11.40;2.20;;;6.20;99.90;;;;;;4939458;29;20047;-90
2022/01/28 02:36:14;;;;;;;12.30;2.10;;;6.20;99.90;;;;;;4954543;29;20057;-90
2022/01/28 02:38:41;;;;;;;14.50;1.80;;;6.20;99.90;;;;;;4954200;28;20050;-90
2022/01/28 02:41:09;;;;;;;15.65;2.05;;;6.20;99.90;;;;;;4954567;29;20043;-90
2022/01/28 02:43:42;;;;;;;20.88;2.85;;;6.20;99.90;;;;;;4954839;28;20078;-90
2022/01/28 02:46:15;;;;;;;12.55;1.55;;;6.20;99.90;;;;;;4954501;28;20048;-90
2022/01/28 02:48:54;;;;;;;11.55;1.60;;;6.20;99.90;;;;;;4954456;29;20401;-90
2022/01/28 02:51:23;;;;;;;10.90;1.88;;;6.20;99.90;;;;;;4954621;28;20050;-91
2022/01/28 02:53:55;;;;;;;7.22;2.00;;;6.20;99.90;;;;;;4954211;28;20089;-90
2022/01/28 02:56:34;;;;;;;12.50;1.85;;;6.20;99.90;;;;;;4954256;29;20077;-91
2022/01/28 02:59:05;;;;;;;12.57;2.22;;;6.20;99.90;;;;;;4954371;28;20489;-91
2022/01/28 03:01:33;;;;;;;20.95;1.70;;;6.20;99.90;;;;;;4954219;28;20388;-91
2022/01/28 03:04:03;;;;;;;8.90;2.20;;;6.10;99.90;;;;;;4954728;28;20465;-91
2022/01/28 03:06:30;;;;;;;4.47;1.95;;;6.10;99.90;;;;;;4961381;28;20362;-90
2022/01/28 03:09:07;;;;;;;12.57;1.65;;;6.10;99.90;;;;;;4939468;28;20434;-91
2022/01/28 03:19:49;;;;;;;17.63;2.55;;;6.10;99.90;;;;;;4938161;28;20051;-90
2022/01/28 03:22:16;;;;;;;11.60;2.22;;;6.10;99.90;;;;;;4954364;29;20358;-90
2022/01/28 03:24:46;;;;;;;13.25;2.25;;;6.10;99.90;;;;;;4957666;29;20106;-90
2022/01/28 03:27:21;;;;;;;18.88;3.15;;;6.10;99.90;;;;;;4954040;28;20106;-90
2022/01/28 03:29:48;;;;;;;9.63;1.35;;;6.10;99.90;;;;;;4954316;29;20485;-90
2022/01/28 03:32:15;;;;;;;19.48;2.65;;;6.10;99.90;;;;;;4960325;28;20122;-90
2022/01/28 03:34:42;;;;;;;8.40;2.40;;;6.10;99.90;;;;;;4956178;28;20050;-91
2022/01/28 03:37:09;;;;;;;7.70;1.70;;;6.10;99.90;;;;;;4953901;28;20083;-90
2022/01/28 03:39:36;;;;;;;13.75;2.17;;;6.10;99.90;;;;;;4953799;28;20537;-91
2022/01/28 03:42:05;;;;;;;11.52;1.77;;;6.10;99.90;;;;;;4956512;28;20054;-91
2022/01/28 03:44:32;;;;;;;7.15;1.80;;;6.10;99.90;;;;;;4957881;28;20056;-91
2022/01/28 03:46:59;;;;;;;10.43;1.70;;;6.10;99.90;;;;;;4941785;29;20486;-90
2022/01/28 03:49:26;;;;;;;11.23;1.92;;;6.10;99.90;;;;;;4941696;29;20409;-90
2022/01/28 03:51:53;;;;;;;13.18;1.65;;;6.10;99.90;;;;;;4941700;29;20043;-90
2022/01/28 03:54:20;;;;;;;6.53;1.10;;;6.10;99.90;;;;;;4941900;29;20564;-91
2022/01/28 03:56:47;;;;;;;8.95;1.35;;;6.10;99.90;;;;;;4957610;28;20070;-90
2022/01/28 03:59:14;;;;;;;15.15;1.88;;;6.10;99.90;;;;;;4941503;29;20051;-91
2022/01/28 04:01:44;;;;;;;16.40;2.80;;;6.10;99.90;;;;;;4941693;29;20051;-91
2022/01/28 04:12:37;;;;;;;23.88;3.08;;;6.10;99.90;;;;;;4958513;28;20046;-91
2022/01/28 04:17:33;;;;;;;10.45;1.70;;;6.10;99.90;;;;;;4956766;28;20055;-91
2022/01/28 04:20:00;;;;;;;8.60;1.70;;;6.10;99.90;;;;;;4957184;28;20062;-91
2022/01/28 04:22:27;;;;;;;16.83;2.10;;;6.10;99.90;;;;;;4956831;28;20055;-90
2022/01/28 04:24:54;;;;;;;12.75;3.15;;;6.00;99.90;;;;;;4956949;28;20079;-90
2022/01/28 04:27:21;;;;;;;9.43;1.60;;;6.10;99.90;;;;;;4958359;28;20071;-90
2022/01/28 04:29:48;;;;;;;9.50;1.98;;;6.10;99.90;;;;;;4941481;29;20043;-91
2022/01/28 04:32:17;;;;;;;10.75;1.90;;;6.10;99.90;;;;;;4957500;28;20044;-91
2022/01/28 04:34:45;;;;;;;16.88;1.75;;;6.10;99.90;;;;;;4957478;29;20126;-91
2022/01/28 04:40:08;;;;;;;8.10;2.55;;;6.00;99.90;;;;;;4957369;28;20102;-91
2022/01/28 04:47:56;;;;;;;13.32;2.10;;;6.00;99.90;;;;;;4956523;28;20118;-89
2022/01/28 04:50:52;;;;;;;20.83;1.65;;;6.00;99.90;;;;;;4941083;29;20047;-90
2022/01/28 04:56:14;;;;;;;8.20;2.63;;;5.90;99.90;;;;;;4958097;28;20564;-90
2022/01/28 05:02:13;;;;;;;6.57;2.13;;;6.00;99.90;;;;;;4957278;28;20106;-92
2022/01/28 05:04:41;;;;;;;11.63;2.15;;;6.00;99.90;;;;;;4946992;28;20047;-90
2022/01/28 05:27:01;;;;;;;15.52;1.45;;;6.00;99.90;;;;;;4996298;28;20165;-93
2022/01/28 05:29:33;;;;;;;9.20;0.80;;;6.00;99.90;;;;;;4980356;28;20042;-92
2022/01/28 05:32:03;;;;;;;9.55;2.40;;;6.00;99.90;;;;;;4995952;28;20092;-92
2022/01/28 05:34:30;;;;;;;6.28;1.80;;;6.00;99.90;;;;;;4994949;28;20412;-92
2022/01/28 05:36:58;;;;;;;14.95;2.17;;;6.00;99.90;;;;;;4995848;28;20039;-91
2022/01/28 05:39:25;;;;;;;13.68;1.10;;;6.00;99.90;;;;;;4994317;28;20108;-91
2022/01/28 05:41:52;;;;;;;18.45;2.08;;;5.90;99.90;;;;;;4995986;28;20051;-91
2022/01/28 05:44:20;;;;;;;15.93;2.17;;;6.00;99.90;;;;;;4962685;28;20055;-92
2022/01/28 05:46:48;;;;;;;12.10;2.17;;;5.90;99.90;;;;;;4962305;28;20046;-92
2022/01/28 05:49:16;;;;;;;10.57;2.67;;;5.90;99.90;;;;;;4978448;28;20100;-91
2022/01/28 05:51:55;;;;;;;8.10;1.17;;;5.90;99.90;;;;;;4978252;28;20077;-92
2022/01/28 05:54:24;;;;;;;15.73;2.78;;;5.90;99.90;;;;;;4978372;28;20046;-93
2022/01/28 05:56:53;;;;;;;19.00;2.85;;;5.90;99.90;;;;;;4978755;28;20050;-91
2022/01/28 05:59:20;;;;;;;12.73;2.78;;;5.90;99.90;;;;;;4949430;28;20082;-91
2022/01/28 06:01:47;;;;;;;5.60;0.82;;;5.90;99.90;;;;;;4960537;28;20086;-91
2022/01/28 06:04:17;;;;;;;16.05;1.88;;;5.90;99.90;;;;;;4959272;28;20073;-90
2022/01/28 06:06:44;;;;;;;9.93;1.85;;;5.90;99.90;;;;;;4960855;28;20134;-91
2022/01/28 06:09:11;;;;;;;11.05;1.45;;;5.90;99.90;;;;;;4942520;28;20090;-90
2022/01/28 06:11:38;;;;;;;13.90;2.20;;;5.90;99.90;;;;;;4958339;28;20134;-90
2022/01/28 06:14:06;;;;;;;11.27;2.67;;;5.90;99.90;;;;;;4958387;28;20041;-91
2022/01/28 06:16:33;;;;;;;9.15;2.03;;;5.90;99.90;;;;;;4958551;28;20042;-91
2022/01/28 06:19:01;;;;;;;20.60;1.90;;;5.90;99.90;;;;;;4957901;28;20058;-89
2022/01/28 06:21:28;;;;;;;9.20;1.35;;;5.90;99.90;;;;;;4958204;28;20098;-91
2022/01/28 06:23:56;;;;;;;15.27;1.92;;;5.90;99.90;;;;;;4958167;28;20058;-90
2022/01/28 06:26:23;;;;;;;10.18;2.03;;;5.80;99.90;;;;;;4942491;28;20070;-91
2022/01/28 06:28:50;;;;;;;11.00;1.80;;;5.90;99.90;;;;;;4957778;28;20493;-90
2022/01/28 06:31:17;;;;;;;10.27;1.98;;;5.90;99.90;;;;;;4942100;28;20531;-91
2022/01/28 06:33:48;;;;;;;11.68;1.50;;;5.80;99.90;;;;;;4957700;28;20049;-91
2022/01/28 06:36:15;;;;;;;9.70;1.75;;;5.80;99.90;;;;;;4942070;28;20444;-89
2022/01/28 06:38:42;;;;;;;14.50;1.60;;;5.80;99.90;;;;;;4957545;28;20493;-90
2022/01/28 06:41:09;;;;;;;9.25;1.33;;;5.90;99.90;;;;;;4958032;28;20101;-90
2022/01/28 06:43:39;;;;;;;10.07;1.58;;;5.80;99.90;;;;;;4957934;28;20073;-91
2022/01/28 06:46:06;;;;;;;17.13;2.28;;;5.80;99.90;;;;;;4957974;28;20137;-91
2022/01/28 06:48:33;;;;;;;11.43;1.55;;;5.80;99.90;;;;;;4974870;28;20889;-90
2022/01/28 06:51:00;;;;;;;22.35;1.85;;;5.80;99.90;;;;;;4957654;28;20097;-91
2022/01/28 06:53:27;;;;;;;18.05;2.30;;;5.80;99.90;;;;;;4941739;28;20579;-91
2022/01/28 06:55:54;;;;;;;20.67;1.60;;;5.80;99.90;;;;;;4957703;28;20046;-90
2022/01/28 06:58:21;;;;;;;12.93;2.30;;;5.80;99.90;;;;;;4957421;28;20050;-90
2022/01/28 07:00:48;;;;;;;7.50;2.03;;;5.80;99.90;;;;;;4957572;28;20038;-90
2022/01/28 07:03:15;;;;;;;19.88;1.30;;;5.80;99.90;;;;;;4942671;28;20077;-89
2022/01/28 07:05:42;;;;;;;6.68;1.95;;;5.80;99.90;;;;;;4957229;28;20050;-90
2022/01/28 07:08:09;;;;;;;21.27;2.17;;;5.80;99.90;;;;;;4956906;28;20039;-90
2022/01/28 07:10:37;;;;;;;12.48;1.60;;;5.80;99.90;;;;;;4957477;28;20050;-90
2022/01/28 07:13:04;;;;;;;5.70;0.95;;;5.80;99.90;;;;;;4957564;28;20153;-90
2022/01/28 07:15:31;;;;;;;10.73;1.60;;;5.80;99.90;;;;;;4957448;28;20085;-90
2022/01/28 07:18:02;;;;;;;8.50;1.63;;;5.70;99.90;;;;;;4958967;28;20050;-90
2022/01/28 07:20:30;;;;;;;8.98;1.20;;;5.70;99.90;;;;;;4957682;28;20086;-90
2022/01/28 07:22:58;;;;;;;10.15;1.98;;;5.70;99.90;;;;;;4956551;28;20476;-90
2022/01/28 07:25:25;;;;;;;13.05;1.33;;;5.70;99.90;;;;;;4953908;28;20340;-90
2022/01/28 07:27:52;;;;;;;9.23;2.38;;;5.70;99.90;;;;;;4956755;28;20480;-90
2022/01/28 07:30:19;;;;;;;8.88;1.25;;;5.70;99.90;;;;;;4957281;28;20035;-90
2022/01/28 07:32:49;;;;;;;11.68;1.58;;;5.70;99.90;;;;;;4957782;28;20047;-91
2022/01/28 07:35:16;;;;;;;9.90;1.17;;;5.70;99.90;;;;;;4957719;28;20038;-90
2022/01/28 07:37:44;;;;;;;5.40;1.65;;;5.70;99.90;;;;;;4957555;28;20453;-90
2022/01/28 07:40:12;;;;;;;8.27;1.75;;;5.70;99.90;;;;;;4957153;28;20047;-91
2022/01/28 07:42:40;;;;;;;18.35;2.10;;;5.70;99.90;;;;;;4958001;28;20050;-90
2022/01/28 07:45:09;;;;;;;10.35;1.40;;;5.70;99.90;;;;;;4957713;28;20039;-91
2022/01/28 07:47:36;;;;;;;10.88;1.27;;;5.70;99.90;;;;;;4957315;28;20106;-90
2022/01/28 07:50:07;;;;;;;6.55;1.08;;;5.70;99.90;;;;;;4974965;28;20446;-91
2022/01/28 07:52:35;;;;;;;8.20;1.50;;;5.70;99.90;;;;;;4957355;28;20046;-90
2022/01/28 07:55:06;;;;;;;10.15;1.10;;;5.60;99.90;;;;;;4974488;28;20035;-89
2022/01/28 07:57:34;;;;;;;12.38;3.80;;;5.60;99.90;;;;;;4957259;28;20098;-91
2022/01/28 08:00:03;;;;;;;17.05;1.35;;;5.60;99.90;;;;;;4957052;28;20113;-89
2022/01/28 08:02:38;;;;;;;11.98;2.97;;;5.60;99.90;;;;;;4959004;28;20538;-90
2022/01/28 08:05:06;;;;;;;6.03;0.75;;;5.60;99.90;;;;;;4974281;28;20054;-90
2022/01/28 08:07:32;;;;;;;11.13;1.85;;;5.70;99.90;;;;;;4956980;28;20484;-90
2022/01/28 08:09:59;;;;;;;4.07;0.80;;;5.70;99.90;;;;;;4956937;28;20043;-90
2022/01/28 08:12:26;;;;;;;16.58;1.33;;;5.70;99.90;;;;;;4957222;28;20114;-91
2022/01/28 08:14:53;;;;;;;7.80;1.38;;;5.70;99.90;;;;;;4957179;28;20050;-89
2022/01/28 08:17:20;;;;;;;14.32;1.73;;;5.70;99.90;;;;;;4956739;28;20149;-89
2022/01/28 08:19:47;;;;;;;15.30;2.50;;;5.70;99.90;;;;;;4956672;28;20078;-90
2022/01/28 08:22:14;;;;;;;19.25;1.70;;;5.70;99.90;;;;;;4956916;28;20137;-90
2022/01/28 08:24:41;;;;;;;17.60;2.05;;;5.80;99.90;;;;;;4956785;28;20117;-90
2022/01/28 08:27:08;;;;;;;13.98;1.48;;;5.80;99.90;;;;;;4973724;28;20419;-89
2022/01/28 08:29:35;;;;;;;12.15;1.88;;;5.90;99.90;;;;;;4959942;28;20163;-90
2022/01/28 08:32:02;;;;;;;16.25;2.35;;;5.80;99.90;;;;;;4960282;28;20116;-90
2022/01/28 08:34:31;;;;;;;18.35;2.10;;;5.90;99.90;;;;;;4960550;28;20558;-90
2022/01/28 08:37:03;;;;;;;9.23;1.02;;;5.90;99.90;;;;;;4959773;28;20145;-90
2022/01/28 08:39:35;;;;;;;11.95;1.65;;;5.90;99.90;;;;;;4959970;28;20058;-91
2022/01/28 08:42:02;;;;;;;8.77;1.23;;;6.00;99.90;;;;;;4960034;28;20059;-89
2022/01/28 08:44:29;;;;;;;3.80;1.23;;;6.00;99.90;;;;;;4959756;28;20074;-90
2022/01/28 08:46:56;;;;;;;11.30;1.50;;;6.00;99.90;;;;;;4960011;28;20045;-91
2022/01/28 08:49:23;;;;;;;18.23;2.25;;;6.00;99.90;;;;;;4960249;28;20133;-91
2022/01/28 08:51:50;;;;;;;13.80;1.60;;;6.10;99.90;;;;;;4944318;28;20049;-91
2022/01/28 08:54:18;;;;;;;10.60;3.03;;;6.00;99.90;;;;;;4959711;28;20844;-91
2022/01/28 08:56:45;;;;;;;19.38;1.95;;;6.00;99.90;;;;;;4959526;28;20417;-90
2022/01/28 08:59:32;;;;;;;14.40;3.13;;;6.10;99.90;;;;;;4959429;28;20039;-90
2022/01/28 09:01:59;;;;;;;15.25;1.35;;;6.10;99.90;;;;;;4960503;28;20082;-91
2022/01/28 09:04:26;;;;;;;9.13;1.88;;;6.10;99.90;;;;;;4976884;28;20111;-90
2022/01/28 09:06:53;;;;;;;21.40;2.00;;;6.10;99.90;;;;;;4943714;28;20050;-90
2022/01/28 09:09:20;;;;;;;7.38;1.70;;;6.10;99.90;;;;;;4959488;28;20050;-90
2022/01/28 09:11:54;;;;;;;11.45;2.00;;;6.10;99.90;;;;;;4959450;28;20046;-91
2022/01/28 09:14:22;;;;;;;9.77;1.40;;;6.10;99.90;;;;;;4959337;28;20042;-90
2022/01/28 09:16:49;;;;;;;14.20;2.00;;;6.20;99.90;;;;;;4959525;28;20107;-90
2022/01/28 09:19:16;;;;;;;8.88;1.25;;;6.20;99.90;;;;;;4959245;28;20050;-90
2022/01/28 09:21:43;;;;;;;18.23;1.45;;;6.20;99.90;;;;;;4959366;28;20548;-89
2022/01/28 09:24:10;;;;;;;8.20;1.70;;;6.20;99.90;;;;;;4976670;28;20038;-91
2022/01/28 09:26:37;;;;;;;15.88;2.20;;;6.20;99.90;;;;;;4943201;28;20134;-91
2022/01/28 09:29:04;;;;;;;13.13;1.70;;;6.20;99.90;;;;;;4959160;28;20039;-90
2022/01/28 09:31:49;;;;;;;11.88;2.03;;;6.30;99.90;;;;;;4976283;28;20031;-90
2022/01/28 09:34:17;;;;;;;9.23;2.38;;;6.30;99.90;;;;;;4958844;28;20043;-91
2022/01/28 09:36:44;;;;;;;6.75;2.58;;;6.40;99.90;;;;;;4959079;28;20453;-91
2022/01/28 09:39:13;;;;;;;9.55;1.50;;;6.40;99.90;;;;;;4958082;28;20070;-90
2022/01/28 09:41:40;;;;;;;14.65;2.10;;;6.50;99.90;;;;;;4958793;28;20059;-90
2022/01/28 09:44:09;;;;;;;7.05;0.95;;;6.50;99.90;;;;;;4943072;28;20053;-90
2022/01/28 09:46:37;;;;;;;11.75;1.33;;;6.50;99.90;;;;;;4958951;28;20455;-91
2022/01/28 09:49:04;;;;;;;13.48;1.83;;;6.50;99.90;;;;;;4958914;28;20043;-90
2022/01/28 09:51:31;;;;;;;19.52;2.55;;;6.50;99.90;;;;;;4958985;28;20444;-90
2022/01/28 09:53:59;;;;;;;10.32;1.80;;;6.60;99.90;;;;;;4976190;28;20046;-91
2022/01/28 09:56:28;;;;;;;11.27;1.25;;;6.70;99.90;;;;;;4959260;28;20047;-91
2022/01/28 09:58:55;;;;;;;12.00;1.42;;;6.70;99.90;;;;;;4976571;28;20141;-90
2022/01/28 10:01:22;;;;;;;8.85;1.20;;;6.90;99.90;;;;;;4960862;28;20460;-90
2022/01/28 10:04:19;;;;;;;13.27;1.45;;;6.90;99.90;;;;;;4963065;28;20094;-90
2022/01/28 10:06:46;;;;;;;6.57;1.48;;;7.00;99.90;;;;;;4947703;28;20087;-90
2022/01/28 10:09:18;;;;;;;13.35;2.35;;;7.00;99.90;;;;;;4958699;28;20109;-90
2022/01/28 10:11:48;;;;;;;18.15;2.25;;;7.00;99.90;;;;;;4958563;28;20110;-91
2022/01/28 10:14:22;;;;;;;7.18;1.55;;;7.00;99.90;;;;;;4976010;28;20077;-92
2022/01/28 10:17:01;;;;;;;18.20;1.83;;;7.10;99.90;;;;;;4958375;28;20074;-90
2022/01/28 10:19:40;;;;;;;9.52;2.63;;;7.10;99.90;;;;;;4958378;28;20050;-91
2022/01/28 10:22:18;;;;;;;16.77;1.58;;;7.10;99.90;;;;;;4958112;28;20117;-91
2022/01/28 10:25:05;;;;;;;12.48;2.00;;;7.00;99.90;;;;;;4958184;28;20173;-90
2022/01/28 10:27:33;;;;;;;7.82;1.10;;;7.00;99.90;;;;;;4942951;28;20082;-90
2022/01/28 10:30:05;;;;;;;11.13;1.92;;;7.10;99.90;;;;;;4957832;28;20077;-91
2022/01/28 10:32:32;;;;;;;12.90;1.75;;;7.00;99.90;;;;;;4958052;28;20050;-91
2022/01/28 10:34:59;;;;;;;23.42;1.48;;;7.00;99.90;;;;;;4958182;28;20043;-91
2022/01/28 10:37:30;;;;;;;10.95;1.70;;;7.00;99.90;;;;;;4957805;28;20130;-91
2022/01/28 10:40:09;;;;;;;13.85;1.42;;;7.00;99.90;;;;;;4958181;28;20082;-90
2022/01/28 10:42:39;;;;;;;10.18;1.55;;;7.00;99.90;;;;;;4941689;28;20432;-90
2022/01/28 10:45:12;;;;;;;9.45;1.15;;;7.10;99.90;;;;;;4957428;28;20074;-90
2022/01/28 10:47:41;;;;;;;11.73;2.13;;;7.10;99.90;;;;;;4957681;28;20043;-91
2022/01/28 10:50:35;;;;;;;4.70;1.08;;;7.20;99.90;;;;;;4957160;28;20408;-90
2022/01/28 10:53:13;;;;;;;12.30;1.90;;;7.10;99.90;;;;;;4957707;28;20543;-91
2022/01/28 10:55:44;;;;;;;20.92;1.73;;;7.30;99.90;;;;;;4941558;28;20074;-92
2022/01/28 10:58:14;;;;;;;13.52;2.42;;;7.30;99.90;;;;;;4957489;28;20050;-91
2022/01/28 11:00:43;;;;;;;14.25;1.27;;;7.20;99.90;;;;;;4974792;28;20046;-91
2022/01/28 11:03:16;;;;;;;17.92;2.80;;;7.10;99.90;;;;;;4957690;28;20082;-90
2022/01/28 11:05:44;;;;;;;10.23;1.90;;;7.20;99.90;;;;;;4959206;28;20555;-90
2022/01/28 11:08:15;;;;;;;9.07;1.50;;;7.20;99.90;;;;;;4956984;28;20047;-90
2022/01/28 11:10:43;;;;;;;13.18;1.50;;;7.20;99.90;;;;;;4974543;28;20099;-90
2022/01/28 11:13:10;;;;;;;10.73;1.55;;;7.20;99.90;;;;;;4974747;28;20066;-90
2022/01/28 11:15:37;;;;;;;14.98;1.20;;;7.30;99.90;;;;;;4957028;28;20241;-90
2022/01/28 11:18:07;;;;;;;3.58;0.98;;;7.40;99.90;;;;;;4957154;28;20069;-90
2022/01/28 11:20:49;;;;;;;7.95;1.95;;;7.40;99.90;;;;;;4956882;28;20161;-90
2022/01/28 11:23:35;;;;;;;6.82;0.63;;;7.50;99.90;;;;;;4963002;28;20083;-89
2022/01/28 11:26:14;;;;;;;13.88;1.80;;;7.50;99.90;;;;;;4974367;28;20050;-90
2022/01/28 11:28:55;;;;;;;11.30;1.10;;;7.50;99.90;;;;;;4941271;28;20105;-91
2022/01/28 11:31:50;;;;;;;4.00;1.02;;;7.50;99.90;;;;;;4957916;28;20051;-91
2022/01/28 11:34:28;;;;;;;12.65;1.10;;;7.60;99.90;;;;;;4939658;28;20133;-91
2022/01/28 11:37:29;;;;;;;3.67;1.17;;;7.60;99.90;;;;;;4956689;28;20054;-91
2022/01/28 11:40:08;;;;;;;8.73;1.60;;;7.60;99.90;;;;;;4956729;28;20059;-90
2022/01/28 11:42:35;;;;;;;7.70;1.30;;;7.60;99.90;;;;;;4944726;28;20054;-90
2022/01/28 11:45:10;;;;;;;6.07;0.90;;;7.70;99.90;;;;;;4957879;28;20070;-90
2022/01/28 11:47:39;;;;;;;10.15;0.95;;;7.70;99.90;;;;;;4956615;28;20137;-90
2022/01/28 11:50:09;;;;;;;9.88;0.85;;;7.80;99.90;;;;;;4958739;28;20179;-90
2022/01/28 11:52:42;;;;;;;8.27;0.93;;;7.80;99.90;;;;;;4957097;28;20050;-91
2022/01/28 11:55:15;;;;;;;10.60;1.63;;;7.80;99.90;;;;;;4957627;28;20039;-91
2022/01/28 11:58:03;;;;;;;8.00;1.20;;;8.00;99.90;;;;;;4957001;28;20062;-90
2022/01/28 12:00:39;;;;;;;10.20;1.40;;;8.00;99.90;;;;;;4947678;28;20050;-91
2022/01/28 12:03:24;;;;;;;4.45;1.33;;;8.00;99.90;;;;;;4943696;28;20551;-89
2022/01/28 12:05:56;;;;;;;10.18;1.00;;;8.00;99.90;;;;;;4961611;28;20059;-90
2022/01/28 12:08:30;;;;;;;8.70;0.80;;;8.00;99.90;;;;;;4960014;28;20408;-91
2022/01/28 12:11:00;;;;;;;9.63;1.38;;;8.00;99.90;;;;;;4960517;28;20420;-90
2022/01/28 12:14:30;;;;;;;11.98;1.75;;;8.00;99.90;;;;;;4960541;28;20042;-91
2022/01/28 12:16:47;;;;;;;11.13;1.35;;;8.10;99.90;;;;;;4960661;28;20508;-90
2022/01/28 12:19:19;;;;;;;7.60;1.25;;;8.10;99.90;;;;;;4963160;28;20110;-89
2022/01/28 12:22:07;;;;;;;7.80;1.05;;;8.10;99.90;;;;;;4965943;28;20054;-90
2022/01/28 12:24:37;;;;;;;8.80;0.90;;;8.10;99.90;;;;;;4980209;28;20051;-90
2022/01/28 12:27:07;;;;;;;13.20;1.27;;;8.10;99.90;;;;;;4979770;28;20065;-91
2022/01/28 12:29:47;;;;;;;6.05;1.00;;;8.10;99.90;;;;;;4979531;28;20042;-91
2022/01/28 12:32:22;;;;;;;5.22;0.88;;;8.10;99.90;;;;;;4996175;28;20046;-92
2022/01/28 12:34:49;;;;;;;7.13;0.85;;;8.20;99.90;;;;;;4996857;28;20034;-91
2022/01/28 12:37:21;;;;;;;9.50;1.15;;;8.20;99.90;;;;;;4981242;28;20128;-90
2022/01/28 12:39:59;;;;;;;6.72;1.45;;;8.20;99.90;;;;;;5000141;28;20047;-91
2022/01/28 12:42:27;;;;;;;5.45;0.82;;;8.30;99.90;;;;;;4995447;28;20492;-90
2022/01/28 12:44:56;;;;;;;11.80;0.98;;;8.30;99.90;;;;;;4997388;28;20050;-90
2022/01/28 12:47:25;;;;;;;5.32;0.75;;;8.30;99.90;;;;;;4979476;28;20049;-91
2022/01/28 12:50:03;;;;;;;11.70;0.90;;;8.30;99.90;;;;;;4996174;28;20449;-92
2022/01/28 12:52:34;;;;;;;4.72;0.70;;;8.30;99.90;;;;;;4978953;28;20116;-91
2022/01/28 12:55:03;;;;;;;9.95;1.42;;;8.30;99.90;;;;;;4979060;28;20049;-90
2022/01/28 12:57:30;;;;;;;10.23;1.10;;;8.40;99.90;;;;;;4965453;28;20046;-90
2022/01/28 12:59:58;;;;;;;3.45;1.10;;;8.40;99.90;;;;;;4978925;28;20046;-91
2022/01/28 13:02:32;;;;;;;4.10;0.95;;;8.50;99.90;;;;;;4995050;28;20038;-90
2022/01/28 13:10:21;;;;;;;9.82;1.05;;;8.50;99.90;;;;;;4959581;28;20046;-91
2022/01/28 13:12:49;;;;;;;7.97;1.40;;;8.50;99.90;;;;;;4959326;28;20046;-90
2022/01/28 13:15:17;;;;;;;7.13;1.10;;;8.50;99.90;;;;;;4958708;28;20485;-91
2022/01/28 13:17:59;;;;;;;8.95;0.82;;;8.50;99.90;;;;;;4959594;28;20046;-91
2022/01/28 13:20:40;;;;;;;15.15;1.35;;;8.60;99.90;;;;;;4943389;28;20078;-92
2022/01/28 13:23:10;;;;;;;7.22;1.25;;;8.60;99.90;;;;;;4943517;28;20050;-91
2022/01/28 13:25:38;;;;;;;5.35;0.90;;;8.50;99.90;;;;;;4959425;28;20052;-91
2022/01/28 13:28:13;;;;;;;5.63;0.55;;;8.50;99.90;;;;;;4960071;28;20039;-91
2022/01/28 13:30:41;;;;;;;9.45;1.30;;;8.50;99.90;;;;;;4943688;28;20050;-90
2022/01/28 13:33:10;;;;;;;6.95;1.33;;;8.50;99.90;;;;;;4959214;28;20051;-91
2022/01/28 13:35:39;;;;;;;5.10;0.63;;;8.60;99.90;;;;;;4959676;28;20035;-91
2022/01/28 13:38:16;;;;;;;3.80;1.02;;;8.50;99.90;;;;;;4960204;28;20129;-90
2022/01/28 13:40:44;;;;;;;6.47;1.20;;;8.60;99.90;;;;;;4944547;28;20047;-90
2022/01/28 13:43:16;;;;;;;8.90;1.45;;;8.50;99.90;;;;;;4960311;28;20182;-91
2022/01/28 13:45:53;;;;;;;4.10;1.08;;;8.50;99.90;;;;;;4959360;28;20142;-91
2022/01/28 13:48:32;;;;;;;8.80;0.85;;;8.60;99.90;;;;;;4976529;28;20063;-90
2022/01/28 13:51:14;;;;;;;11.88;1.27;;;8.60;99.90;;;;;;4944256;28;20061;-90
2022/01/28 13:56:28;;;;;;;4.40;0.60;;;8.70;99.90;;;;;;4960042;28;20054;-91
2022/01/28 13:58:57;;;;;;;5.65;2.05;;;8.60;99.90;;;;;;4959761;28;20047;-90
2022/01/28 14:01:25;;;;;;;8.45;0.90;;;8.70;99.90;;;;;;4959337;28;20078;-91
2022/01/28 14:04:00;;;;;;;6.95;1.52;;;8.60;99.90;;;;;;4958794;28;20398;-91
2022/01/28 14:06:35;;;;;;;9.70;1.33;;;8.70;99.90;;;;;;4958651;28;20061;-91
2022/01/28 14:09:15;;;;;;;13.13;1.98;;;8.70;99.90;;;;;;4958539;28;20382;-91
2022/01/28 14:11:46;;;;;;;11.70;1.80;;;8.70;99.90;;;;;;4958828;28;20042;-91
2022/01/28 14:14:26;;;;;;;10.10;1.73;;;8.70;99.90;;;;;;4958650;28;20047;-92
2022/01/28 14:17:03;;;;;;;7.13;2.05;;;8.70;99.90;;;;;;4958731;28;20090;-91
2022/01/28 14:19:34;;;;;;;9.65;1.83;;;8.70;99.90;;;;;;4958583;28;20083;-92
2022/01/28 14:22:09;;;;;;;12.07;1.83;;;8.70;99.90;;;;;;4958403;28;20412;-90
2022/01/28 14:24:52;;;;;;;11.35;1.52;;;8.70;99.90;;;;;;4958387;28;20084;-91
2022/01/28 14:30:04;;;;;;;6.22;1.10;;;8.70;99.90;;;;;;4958280;28;20054;-90
2022/01/28 14:32:32;;;;;;;14.45;2.00;;;8.70;99.90;;;;;;4958418;28;20047;-89
2022/01/28 14:34:59;;;;;;;12.70;1.92;;;8.70;99.90;;;;;;4958039;28;20035;-90
2022/01/28 14:37:27;;;;;;;7.70;1.80;;;8.70;99.90;;;;;;4958347;28;20054;-90